Aérodrome :
LOGIN :

S'inscrire | Disclaimer

   EN    FR    IT 

 










Légende :    VFR   VFR Marginal   IFR   IFR Intensif   IFR Très Intensif
Visi : 
Plafond : 
>= 8 km
>= 3000ft
5 à 8 km
1000 à 3000 ft
1500m à 5 km
500 à 1000 ft
800 à 1500m
200 à 500 ft
< 800m
< 200 ft
Symboles :   Orages  Brouillard  Fortes neiges  Fortes précipitations  Vent > 20 kt
SIGMETs :   Divers  Orages  Givrage  Turbulence  Onde Orograph.  Cendres Volcan.






- Altitude de l'aérodrome : 177 ft
- Code IATA : AYT


LTAI - Antalya

DERNIER METAR :
  • 271550Z 13009KT 9999 SCT030 21/15 Q1012 NOSIG RMK RWY18C 12010KT RWY36R 11009KT RWY18L 12008KT 070V150

METARs EXPIRÉS :
  • 271520Z 13009KT 080V150 9999 SCT030 21/15 Q1013 NOSIG RMK RWY18C 12012KT 090V150 RWY36R 11010KT RWY18L 12009KT 090V150
  • 271450Z 14010KT 090V180 9999 SCT030 22/16 Q1013 NOSIG RMK RWY18C 13010KT 090V170 RWY36R 12011KT RWY18L 14009KT 110V170
  • 271420Z 13010KT 100V180 9999 SCT030 22/16 Q1013 NOSIG RMK RWY18C 13011KT 100V170 RWY36R 12011KT 100V170 RWY18L 13009KT 100V160
  • 271350Z 15010KT 110V200 9999 SCT030 22/17 Q1013 NOSIG RMK RWY18C 13012KT RWY36R 14012KT RWY18L 15010KT 120V190
  • 271320Z 14010KT 110V180 9999 SCT030 22/16 Q1013 NOSIG RMK RWY18C 14010KT RWY36R 13011KT 100V170 RWY18L 16010KT 110V190

TAF TAF LTAI
Valide du 27 à 12h jusqu'au 28 à 12h UTC


271040Z 2712/2812 18014KT 9999 SCT030
TEMPO 2712/2716 FEW025CB
BECMG 2716/2720 36009KT
BECMG 2800/2804 -SHRA BKN030
BECMG 2804/2808 15012KT FEW020CB BKN030
BECMG 2808/2812 16018G28KT
PROB30
TEMPO 2808/2812 -TSRA



MET'MAP, la Météo Aéronautique d'un coup d'oeil ! - Copyright ORBIFLY Décembre 2007 - Disclaimer

ORBIFLY MET'MAP TEAM :

Programmation & Développement : Alexandra Zaïnal
Sur une idée originale de : Baudouin d'Aumeries
Assistance à la programmation : Marc-Olivier Méhu
Soutien technique & logistique : Manuel Goepfert

Contact : metmap@orbifly.com




SOURCES & CREDITS :

   NOAA